createdAt,value
2018-12-17T00:07:03.801Z,0.80
2018-12-17T00:12:17.248Z,0.87
2018-12-17T00:14:54.844Z,0.77
2018-12-17T00:17:31.782Z,0.70
2018-12-17T00:23:18.113Z,0.70
2018-12-17T00:28:45.112Z,0.73
2018-12-17T00:31:19.995Z,0.80
2018-12-17T00:33:53.802Z,1.40
2018-12-17T00:36:27.962Z,0.60
2018-12-17T00:39:03.295Z,0.60
2018-12-17T00:41:39.181Z,1.33
2018-12-17T00:44:13.242Z,0.63
2018-12-17T00:46:47.426Z,1.30
2018-12-17T00:49:21.862Z,1.03
2018-12-17T00:54:35.833Z,0.73
2018-12-17T00:57:11.361Z,0.50
2018-12-17T01:02:37.517Z,1.07
2018-12-17T01:05:12.683Z,0.63
2018-12-17T01:07:50.123Z,0.50
2018-12-17T01:10:24.245Z,1.83
2018-12-17T01:13:01.853Z,0.77
2018-12-17T01:18:16.896Z,0.90
2018-12-17T01:20:50.855Z,0.70
2018-12-17T01:23:24.859Z,1.00
2018-12-17T01:25:59.344Z,0.80
2018-12-17T01:28:34.132Z,1.03
2018-12-17T01:31:08.395Z,1.00
2018-12-17T01:33:42.353Z,0.80
2018-12-17T01:36:16.632Z,1.20
2018-12-17T01:38:52.603Z,0.50
2018-12-17T01:41:26.886Z,0.77
2018-12-17T01:44:01.577Z,1.73
2018-12-17T01:46:37.545Z,1.13
2018-12-17T01:49:12.337Z,1.40
2018-12-17T01:51:46.616Z,0.70
2018-12-17T01:54:21.159Z,1.50
2018-12-17T01:57:01.554Z,1.53
2018-12-17T01:59:35.457Z,0.93
2018-12-17T02:02:09.565Z,0.83
2018-12-17T02:04:43.627Z,1.67
2018-12-17T02:07:17.596Z,0.90
2018-12-17T02:09:51.833Z,0.80
2018-12-17T02:12:25.904Z,1.77
2018-12-17T02:14:59.827Z,1.03
2018-12-17T02:17:33.816Z,1.87
2018-12-17T02:20:12.398Z,0.70
2018-12-17T02:22:49.291Z,1.10
2018-12-17T02:25:24.453Z,1.80
2018-12-17T02:31:17.251Z,0.97
2018-12-17T02:34:14.851Z,0.90
2018-12-17T02:36:49.704Z,0.70
2018-12-17T02:39:24.108Z,0.87
2018-12-17T02:41:58.453Z,0.97
2018-12-17T02:44:32.271Z,0.80
2018-12-17T02:47:06.337Z,0.70
2018-12-17T02:49:43.401Z,0.80
2018-12-17T02:52:29.732Z,0.97
2018-12-17T02:59:43.709Z,1.00
2018-12-17T03:08:43.068Z,2.47
2018-12-17T03:11:17.956Z,1.00
2018-12-17T03:13:52.242Z,1.07
2018-12-17T03:19:04.677Z,1.33
2018-12-17T03:21:39.895Z,1.30
2018-12-17T03:24:17.765Z,1.20
2018-12-17T03:30:09.252Z,2.30
2018-12-17T03:32:55.332Z,1.00
2018-12-17T03:35:32.216Z,1.20
2018-12-17T03:38:10.220Z,1.27
2018-12-17T03:41:08.797Z,1.33
2018-12-17T03:43:51.912Z,1.33
2018-12-17T03:46:29.583Z,1.50
2018-12-17T03:58:01.380Z,2.00
2018-12-17T04:00:35.750Z,1.67
2018-12-17T04:10:08.188Z,1.70
2018-12-17T04:12:42.488Z,3.83
2018-12-17T04:16:26.889Z,2.57
2018-12-17T04:19:02.074Z,2.97
2018-12-17T04:21:36.625Z,3.80
2018-12-17T04:27:49.143Z,6.53
2018-12-17T04:30:30.419Z,14.23
2018-12-17T04:42:24.680Z,3.20
2018-12-17T04:45:02.813Z,2.97
2018-12-17T04:47:49.188Z,2.90
2018-12-17T04:53:37.672Z,3.13
2018-12-17T04:56:13.479Z,5.80
2018-12-17T04:58:49.664Z,3.50
2018-12-17T05:01:24.293Z,5.40
2018-12-17T05:03:58.498Z,12.30
2018-12-17T05:09:39.179Z,4.70
2018-12-17T05:12:13.677Z,20.30
2018-12-17T05:14:48.322Z,9.60
2018-12-17T05:17:24.383Z,19.20
2018-12-17T05:23:41.076Z,8.53
2018-12-17T05:29:27.471Z,9.40
2018-12-17T05:38:40.989Z,9.93
2018-12-17T05:49:41.990Z,4.23
2018-12-17T05:52:25.213Z,4.00
2018-12-17T05:58:05.955Z,2.97
2018-12-17T06:01:44.556Z,2.90
2018-12-17T06:04:32.469Z,2.57
2018-12-17T06:07:07.504Z,3.30
2018-12-17T06:09:49.295Z,3.83
2018-12-17T06:12:35.072Z,2.90
2018-12-17T06:15:22.490Z,4.13
2018-12-17T06:17:58.199Z,2.87
2018-12-17T06:20:33.993Z,2.80
2018-12-17T06:23:08.926Z,3.50
2018-12-17T06:25:44.207Z,2.90
2018-12-17T06:28:18.997Z,4.37
2018-12-17T06:32:03.089Z,3.50
2018-12-17T06:41:02.123Z,3.13
2018-12-17T06:43:36.936Z,3.57
2018-12-17T06:46:11.554Z,3.83
2018-12-17T06:48:47.816Z,2.67
2018-12-17T06:51:28.887Z,3.33
2018-12-17T06:56:55.202Z,3.13
2018-12-17T06:59:42.510Z,3.17
2018-12-17T07:07:52.052Z,2.40
2018-12-17T07:10:32.463Z,3.30
2018-12-17T07:13:13.114Z,3.90
2018-12-17T07:15:47.751Z,2.73
2018-12-17T07:22:07.272Z,4.43
2018-12-17T07:24:43.378Z,4.53
2018-12-17T07:27:49.076Z,3.20
2018-12-17T07:30:27.718Z,2.80
2018-12-17T07:34:06.816Z,4.03
2018-12-17T07:40:06.185Z,2.87
2018-12-17T07:43:09.128Z,2.63
2018-12-17T07:45:44.421Z,3.40
2018-12-17T07:48:24.472Z,3.07
2018-12-17T07:51:23.406Z,3.67
2018-12-17T07:53:59.857Z,2.97
2018-12-17T07:57:45.155Z,3.07
2018-12-17T08:00:19.739Z,2.73
2018-12-17T08:08:51.856Z,3.23
2018-12-17T08:11:27.611Z,3.13
2018-12-17T08:14:02.401Z,3.90
2018-12-17T08:16:37.053Z,3.50
2018-12-17T08:19:28.984Z,3.43
2018-12-17T08:22:04.397Z,3.87
2018-12-17T08:24:40.407Z,3.77
2018-12-17T08:27:21.561Z,3.53
2018-12-17T08:30:03.672Z,3.70
2018-12-17T08:32:33.881Z,3.33
2018-12-17T08:35:08.367Z,3.93
2018-12-17T08:37:42.801Z,4.83
2018-12-17T08:40:17.777Z,3.20
2018-12-17T08:48:37.793Z,3.73
2018-12-17T08:51:12.182Z,2.10
2018-12-17T08:53:47.933Z,3.27
2018-12-17T08:56:22.444Z,2.30
2018-12-17T08:59:06.868Z,2.50
2018-12-17T09:01:40.993Z,1.73
2018-12-17T09:04:15.484Z,2.63
2018-12-17T09:09:36.542Z,3.77
2018-12-17T09:12:11.270Z,2.50
2018-12-17T09:14:46.427Z,3.17
2018-12-17T09:17:29.137Z,3.73
2018-12-17T09:20:04.327Z,2.40
2018-12-17T09:22:38.732Z,2.73
2018-12-17T09:25:14.038Z,5.37
2018-12-17T09:30:26.385Z,1.73
2018-12-17T09:40:29.133Z,1.20
2018-12-17T09:43:04.133Z,0.90
2018-12-17T09:45:37.792Z,0.90
2018-12-17T09:48:11.623Z,1.00
2018-12-17T09:50:45.586Z,1.00
2018-12-17T09:53:19.623Z,1.00
2018-12-17T09:58:31.586Z,1.10
2018-12-17T10:01:05.422Z,0.90
2018-12-17T10:06:23.324Z,1.00
2018-12-17T10:08:58.133Z,1.20
2018-12-17T10:11:34.064Z,1.13
2018-12-17T10:16:47.445Z,1.20
2018-12-17T10:19:22.167Z,0.70
2018-12-17T10:21:56.996Z,0.93
2018-12-17T10:24:31.228Z,1.37
2018-12-17T10:27:05.214Z,0.60
2018-12-17T10:29:39.095Z,0.87
2018-12-17T10:32:21.692Z,1.00
2018-12-17T10:34:55.721Z,0.67
2018-12-17T10:37:30.622Z,0.60
2018-12-17T10:40:12.189Z,0.40
2018-12-17T10:42:45.961Z,0.30
2018-12-17T10:45:21.259Z,0.50
2018-12-17T10:47:55.840Z,0.77
2018-12-17T10:50:30.022Z,0.30
2018-12-17T10:53:04.309Z,0.40
2018-12-17T10:58:28.800Z,0.37
2018-12-17T11:01:08.738Z,0.30
2018-12-17T11:03:47.315Z,0.40
2018-12-17T11:06:24.276Z,0.43
2018-12-17T11:08:58.894Z,0.67
2018-12-17T11:11:32.933Z,0.37
2018-12-17T11:14:14.460Z,0.30
2018-12-17T11:16:48.417Z,0.30
2018-12-17T11:19:22.606Z,0.73
2018-12-17T11:21:56.633Z,0.50
2018-12-17T11:27:11.686Z,0.43
2018-12-17T11:32:25.423Z,0.40
2018-12-17T11:34:59.358Z,1.23
2018-12-17T11:37:33.191Z,0.63
2018-12-17T11:40:07.294Z,0.50
2018-12-17T11:42:41.726Z,0.70
2018-12-17T11:45:16.582Z,0.83
2018-12-17T11:47:51.415Z,0.37
2018-12-17T11:50:26.279Z,0.70
2018-12-17T11:53:01.023Z,0.63
2018-12-17T11:55:34.804Z,0.73
2018-12-17T11:58:10.763Z,1.20
2018-12-17T12:01:16.689Z,1.73
2018-12-17T12:03:50.908Z,0.60
2018-12-17T12:06:26.439Z,0.57
2018-12-17T12:09:00.270Z,0.90
2018-12-17T12:11:35.111Z,0.50
2018-12-17T12:17:09.076Z,0.37
2018-12-17T12:19:42.949Z,0.70
2018-12-17T12:22:16.867Z,0.50
2018-12-17T12:27:30.693Z,0.50
2018-12-17T12:30:05.137Z,0.87
2018-12-17T12:32:39.229Z,0.83
2018-12-17T12:35:13.675Z,0.70
2018-12-17T12:37:48.055Z,0.70
2018-12-17T12:40:22.622Z,0.50
2018-12-17T12:42:56.397Z,0.70
2018-12-17T12:45:30.325Z,0.40
2018-12-17T12:48:05.396Z,0.30
2018-12-17T12:50:40.184Z,0.40
2018-12-17T12:53:14.337Z,0.30
2018-12-17T12:55:48.461Z,0.53
2018-12-17T12:58:23.837Z,0.30
2018-12-17T13:00:58.605Z,1.43
2018-12-17T13:03:34.709Z,0.30
2018-12-17T13:06:10.357Z,0.27
2018-12-17T13:08:44.568Z,0.40
2018-12-17T13:13:58.882Z,0.30
2018-12-17T13:16:39.073Z,0.30
2018-12-17T13:21:51.147Z,0.40
2018-12-17T13:24:27.687Z,0.30
2018-12-17T13:27:02.009Z,0.20
2018-12-17T13:29:36.259Z,0.50
2018-12-17T13:32:10.499Z,0.30
2018-12-17T13:34:44.699Z,0.50
2018-12-17T13:37:20.684Z,0.47
2018-12-17T13:39:56.264Z,0.67
2018-12-17T13:42:31.344Z,0.43
2018-12-17T13:45:07.579Z,0.70
2018-12-17T13:47:41.613Z,0.70
2018-12-17T13:50:20.881Z,0.60
2018-12-17T13:52:59.068Z,0.30
2018-12-17T13:55:33.605Z,0.50
2018-12-17T14:00:21.513Z,0.70
2018-12-17T14:02:58.620Z,0.40
2018-12-17T14:05:34.166Z,0.60
2018-12-17T14:08:09.468Z,0.60
2018-12-17T14:10:54.778Z,0.53
2018-12-17T14:13:32.780Z,0.40
2018-12-17T14:16:20.813Z,0.67
2018-12-17T14:19:21.731Z,0.57
2018-12-17T14:22:07.414Z,0.40
2018-12-17T14:24:42.758Z,0.40
2018-12-17T14:27:17.767Z,0.40
2018-12-17T14:29:53.203Z,0.30
2018-12-17T14:32:28.899Z,0.40
2018-12-17T14:35:04.703Z,0.60
2018-12-17T14:43:07.754Z,0.80
2018-12-17T14:45:42.588Z,1.50
2018-12-17T14:48:23.969Z,0.70
2018-12-17T14:51:10.424Z,0.60
2018-12-17T14:53:47.202Z,0.73
2018-12-17T14:56:40.256Z,0.67
2018-12-17T14:59:17.157Z,0.70
2018-12-17T15:02:06.368Z,0.57
2018-12-17T15:04:42.432Z,0.67
2018-12-17T15:07:19.455Z,0.87
2018-12-17T15:15:37.614Z,0.80
2018-12-17T15:18:14.258Z,0.57
2018-12-17T15:20:48.584Z,0.77
2018-12-17T15:23:22.822Z,0.70
2018-12-17T15:25:58.062Z,0.77
2018-12-17T15:28:48.052Z,0.70
2018-12-17T15:31:23.392Z,0.70
2018-12-17T15:33:58.927Z,0.77
2018-12-17T15:39:18.002Z,1.77
2018-12-17T15:41:53.448Z,0.70
2018-12-17T15:44:29.978Z,0.93
2018-12-17T15:56:03.530Z,1.23
2018-12-17T15:58:38.362Z,1.20
2018-12-17T16:01:24.622Z,0.80
2018-12-17T16:04:02.962Z,1.20
2018-12-17T16:09:30.940Z,1.10
2018-12-17T16:12:07.295Z,1.53
2018-12-17T16:20:24.239Z,1.80
2018-12-17T16:22:58.976Z,1.67
2018-12-17T16:28:38.831Z,2.57
2018-12-17T16:31:13.435Z,1.40
2018-12-17T16:33:48.333Z,1.70
2018-12-17T16:36:22.619Z,1.87
2018-12-17T16:38:57.134Z,3.37
2018-12-17T16:41:30.971Z,2.40
2018-12-17T16:44:05.554Z,2.90
2018-12-17T16:46:39.907Z,2.70
2018-12-17T16:49:14.168Z,2.93
2018-12-17T16:51:48.425Z,3.37
2018-12-17T16:54:23.071Z,2.70
2018-12-17T16:56:57.089Z,3.30
2018-12-17T16:59:31.866Z,3.13
2018-12-17T17:02:05.783Z,3.10
2018-12-17T17:04:40.684Z,3.50
2018-12-17T17:07:15.447Z,3.77
2018-12-17T17:09:49.634Z,3.77
2018-12-17T17:12:23.422Z,3.80
2018-12-17T17:14:57.683Z,3.93
2018-12-17T17:17:32.824Z,4.13
2018-12-17T17:20:16.627Z,3.60
2018-12-17T17:22:52.300Z,3.20
2018-12-17T17:25:26.513Z,3.47
2018-12-17T17:28:00.584Z,3.30
2018-12-17T17:30:34.671Z,4.07
2018-12-17T17:33:09.327Z,4.00
2018-12-17T17:35:43.399Z,3.73
2018-12-17T17:38:18.104Z,3.67
2018-12-17T17:40:52.264Z,4.03
2018-12-17T17:43:26.272Z,3.50
2018-12-17T17:46:00.190Z,4.13
2018-12-17T17:48:34.151Z,3.80
2018-12-17T17:51:08.365Z,4.07
2018-12-17T17:53:42.620Z,4.10
2018-12-17T17:56:17.546Z,3.63
2018-12-17T17:58:51.628Z,3.80
2018-12-17T18:01:26.016Z,3.70
2018-12-17T18:04:00.043Z,4.17
2018-12-17T18:06:34.754Z,4.13
2018-12-17T18:09:08.938Z,4.97
2018-12-17T18:11:42.911Z,4.60
2018-12-17T18:14:17.449Z,3.87
2018-12-17T18:16:52.110Z,3.53
2018-12-17T18:19:26.240Z,3.77
2018-12-17T18:22:00.999Z,4.20
2018-12-17T18:24:34.824Z,4.20
2018-12-17T18:27:08.732Z,4.00
2018-12-17T18:29:42.597Z,4.17
2018-12-17T18:32:16.475Z,4.77
2018-12-17T18:34:50.947Z,4.50
2018-12-17T18:37:26.090Z,4.30
2018-12-17T18:40:00.895Z,3.60
2018-12-17T18:42:35.463Z,3.87
2018-12-17T18:45:09.287Z,3.93
2018-12-17T18:47:43.180Z,4.30
2018-12-17T18:50:17.858Z,4.03
2018-12-17T18:52:51.900Z,5.07
2018-12-17T18:55:25.642Z,4.10
2018-12-17T18:57:59.358Z,4.50
2018-12-17T19:00:33.224Z,4.30
2018-12-17T19:03:07.031Z,4.00
2018-12-17T19:05:40.910Z,4.37
2018-12-17T19:08:14.871Z,4.43
2018-12-17T19:10:51.290Z,4.77
2018-12-17T19:13:25.418Z,4.23
2018-12-17T19:16:02.554Z,4.73
2018-12-17T19:18:36.825Z,4.80
2018-12-17T19:21:10.845Z,4.07
2018-12-17T19:23:50.851Z,4.40
2018-12-17T19:26:24.843Z,4.63
2018-12-17T19:28:58.855Z,4.30
2018-12-17T19:31:34.636Z,4.43
2018-12-17T19:34:15.604Z,4.20
2018-12-17T19:36:49.635Z,3.93
2018-12-17T19:42:03.066Z,4.03
2018-12-17T19:44:37.312Z,3.97
2018-12-17T19:47:11.327Z,12.93
2018-12-17T19:49:46.316Z,4.77
2018-12-17T19:52:20.270Z,4.53
2018-12-17T19:54:54.178Z,4.17
2018-12-17T19:57:28.330Z,4.27
2018-12-17T20:00:02.322Z,4.83
2018-12-17T20:02:36.536Z,4.83
2018-12-17T20:05:11.767Z,4.10
2018-12-17T20:07:45.806Z,4.50
2018-12-17T20:10:26.289Z,4.90
2018-12-17T20:13:01.873Z,4.43
2018-12-17T20:15:35.948Z,4.40
2018-12-17T20:18:22.995Z,5.00
2018-12-17T20:20:58.882Z,4.20
2018-12-17T20:23:34.919Z,4.80
2018-12-17T20:26:09.687Z,4.73
2018-12-17T20:28:44.463Z,4.60
2018-12-17T20:31:18.477Z,4.23
2018-12-17T20:33:55.634Z,4.57
2018-12-17T20:36:30.498Z,4.53
2018-12-17T20:39:06.322Z,5.20
2018-12-17T20:41:40.177Z,4.77
2018-12-17T20:44:14.423Z,4.73
2018-12-17T20:46:48.357Z,4.43
2018-12-17T20:49:22.806Z,4.47
2018-12-17T20:51:57.192Z,4.93
2018-12-17T20:54:31.781Z,4.70
2018-12-17T20:57:06.003Z,5.00
2018-12-17T20:59:39.799Z,4.30
2018-12-17T21:02:16.976Z,4.83
2018-12-17T21:04:57.394Z,4.70
2018-12-17T21:10:13.548Z,4.60
2018-12-17T21:12:47.498Z,4.87
2018-12-17T21:15:22.440Z,5.10
2018-12-17T21:17:56.455Z,4.73
2018-12-17T21:20:30.439Z,4.37
2018-12-17T21:23:04.348Z,4.53
2018-12-17T21:28:17.718Z,4.80
2018-12-17T21:30:52.780Z,4.83
2018-12-17T21:33:26.918Z,4.37
2018-12-17T21:36:00.810Z,4.60
2018-12-17T21:41:14.816Z,4.97
2018-12-17T21:43:48.797Z,4.70
2018-12-17T21:46:22.600Z,5.27
2018-12-17T21:48:57.497Z,4.63
2018-12-17T21:51:31.648Z,5.07
2018-12-17T21:54:05.925Z,5.07
2018-12-17T21:56:39.617Z,4.80
2018-12-17T21:59:13.740Z,5.17
2018-12-17T22:01:47.910Z,5.17
2018-12-17T22:06:59.936Z,5.07
2018-12-17T22:09:33.988Z,5.37
2018-12-17T22:12:08.522Z,4.53
2018-12-17T22:14:43.095Z,5.20
2018-12-17T22:17:17.011Z,5.00
2018-12-17T22:19:51.030Z,5.50
2018-12-17T22:22:25.682Z,4.70
2018-12-17T22:24:59.634Z,5.27
2018-12-17T22:27:33.599Z,4.97
2018-12-17T22:30:08.610Z,4.70
2018-12-17T22:32:44.437Z,5.17
2018-12-17T22:35:18.495Z,4.63
2018-12-17T22:37:52.778Z,5.40
2018-12-17T22:43:05.053Z,5.30
2018-12-17T22:45:39.095Z,5.20
2018-12-17T22:48:25.285Z,5.20
2018-12-17T22:50:59.584Z,5.00
2018-12-17T22:53:38.014Z,4.87
2018-12-17T22:57:18.201Z,5.60
2018-12-17T22:59:53.415Z,4.60
2018-12-17T23:08:59.116Z,4.80
2018-12-17T23:13:20.028Z,4.90
2018-12-17T23:18:46.315Z,5.07
2018-12-17T23:21:20.338Z,5.20
2018-12-17T23:23:54.667Z,4.87
2018-12-17T23:26:28.580Z,5.23
2018-12-17T23:29:02.467Z,5.23
2018-12-17T23:31:36.493Z,5.47
2018-12-17T23:34:10.396Z,5.57
2018-12-17T23:36:45.204Z,6.00
2018-12-17T23:39:19.410Z,5.53
2018-12-17T23:41:54.116Z,5.47
2018-12-17T23:44:45.457Z,5.10
2018-12-17T23:47:19.876Z,5.10
2018-12-17T23:54:12.510Z,5.33
2018-12-17T23:56:49.057Z,5.27
2018-12-17T23:59:23.218Z,4.50
